sensor_id;sensor_type;location;lat;lon;timestamp;temperature;humidity
2002;DHT22;1003;48.002;7.788;2022-12-20T00:01:07;6.90;99.90
2002;DHT22;1003;48.002;7.788;2022-12-20T00:03:37;6.90;99.90
2002;DHT22;1003;48.002;7.788;2022-12-20T00:06:06;6.90;99.90
2002;DHT22;1003;48.002;7.788;2022-12-20T00:08:36;6.90;99.90
2002;DHT22;1003;48.002;7.788;2022-12-20T00:11:06;7.00;99.90
2002;DHT22;1003;48.002;7.788;2022-12-20T00:13:35;7.00;99.90
2002;DHT22;1003;48.002;7.788;2022-12-20T00:16:04;7.00;99.90
2002;DHT22;1003;48.002;7.788;2022-12-20T00:18:32;7.00;99.90
2002;DHT22;1003;48.002;7.788;2022-12-20T00:21:00;7.00;99.90
2002;DHT22;1003;48.002;7.788;2022-12-20T00:23:31;7.00;99.90
2002;DHT22;1003;48.002;7.788;2022-12-20T00:26:02;7.00;99.90
2002;DHT22;1003;48.002;7.788;2022-12-20T00:28:31;7.00;99.90
2002;DHT22;1003;48.002;7.788;2022-12-20T00:30:58;7.00;99.90
2002;DHT22;1003;48.002;7.788;2022-12-20T00:33:25;7.00;99.90
2002;DHT22;1003;48.002;7.788;2022-12-20T00:35:54;7.00;99.90
2002;DHT22;1003;48.002;7.788;2022-12-20T00:38:22;7.00;99.90
2002;DHT22;1003;48.002;7.788;2022-12-20T00:41:00;7.00;99.90
2002;DHT22;1003;48.002;7.788;2022-12-20T00:43:28;7.00;99.90
2002;DHT22;1003;48.002;7.788;2022-12-20T00:45:56;7.10;99.90
2002;DHT22;1003;48.002;7.788;2022-12-20T00:48:23;7.10;99.90
2002;DHT22;1003;48.002;7.788;2022-12-20T00:50:51;7.10;99.90
2002;DHT22;1003;48.002;7.788;2022-12-20T00:53:23;7.20;99.90
2002;DHT22;1003;48.002;7.788;2022-12-20T00:55:49;7.20;99.90
2002;DHT22;1003;48.002;7.788;2022-12-20T00:58:18;7.20;99.90
2002;DHT22;1003;48.002;7.788;2022-12-20T01:00:46;7.30;99.90
2002;DHT22;1003;48.002;7.788;2022-12-20T01:03:13;7.30;99.90
2002;DHT22;1003;48.002;7.788;2022-12-20T01:05:49;7.30;99.90
2002;DHT22;1003;48.002;7.788;2022-12-20T01:08:17;7.30;99.90
2002;DHT22;1003;48.002;7.788;2022-12-20T01:10:44;7.30;99.90
2002;DHT22;1003;48.002;7.788;2022-12-20T01:13:12;7.30;99.90
2002;DHT22;1003;48.002;7.788;2022-12-20T01:15:40;7.40;99.90
2002;DHT22;1003;48.002;7.788;2022-12-20T01:18:07;7.40;99.90
2002;DHT22;1003;48.002;7.788;2022-12-20T01:20:34;7.40;99.90
2002;DHT22;1003;48.002;7.788;2022-12-20T01:23:01;7.40;99.90
2002;DHT22;1003;48.002;7.788;2022-12-20T01:25:28;7.50;99.90
2002;DHT22;1003;48.002;7.788;2022-12-20T01:27:55;7.40;99.90
2002;DHT22;1003;48.002;7.788;2022-12-20T01:30:22;7.40;99.90
2002;DHT22;1003;48.002;7.788;2022-12-20T01:32:51;7.40;99.90
2002;DHT22;1003;48.002;7.788;2022-12-20T01:35:18;7.50;99.90
2002;DHT22;1003;48.002;7.788;2022-12-20T01:37:45;7.50;99.90
2002;DHT22;1003;48.002;7.788;2022-12-20T01:40:12;7.50;99.90
2002;DHT22;1003;48.002;7.788;2022-12-20T01:42:39;7.50;99.90
2002;DHT22;1003;48.002;7.788;2022-12-20T01:45:12;7.50;99.90
2002;DHT22;1003;48.002;7.788;2022-12-20T01:47:48;7.40;99.90
2002;DHT22;1003;48.002;7.788;2022-12-20T01:50:17;7.40;99.90
2002;DHT22;1003;48.002;7.788;2022-12-20T01:52:45;7.40;99.90
2002;DHT22;1003;48.002;7.788;2022-12-20T01:55:17;7.40;99.90
2002;DHT22;1003;48.002;7.788;2022-12-20T01:57:51;7.40;99.90
2002;DHT22;1003;48.002;7.788;2022-12-20T02:00:23;7.50;99.90
2002;DHT22;1003;48.002;7.788;2022-12-20T02:02:50;7.50;99.90
2002;DHT22;1003;48.002;7.788;2022-12-20T02:05:21;7.50;99.90
2002;DHT22;1003;48.002;7.788;2022-12-20T02:07:51;7.50;99.90
2002;DHT22;1003;48.002;7.788;2022-12-20T02:10:23;7.60;99.90
2002;DHT22;1003;48.002;7.788;2022-12-20T02:13:01;7.60;99.90
2002;DHT22;1003;48.002;7.788;2022-12-20T02:15:39;7.50;99.90
2002;DHT22;1003;48.002;7.788;2022-12-20T02:18:20;7.50;99.90
2002;DHT22;1003;48.002;7.788;2022-12-20T02:24:14;7.60;99.90
2002;DHT22;1003;48.002;7.788;2022-12-20T02:30:22;7.60;99.90
2002;DHT22;1003;48.002;7.788;2022-12-20T02:32:57;7.50;99.90
2002;DHT22;1003;48.002;7.788;2022-12-20T02:35:29;7.50;99.90
2002;DHT22;1003;48.002;7.788;2022-12-20T02:37:58;7.60;99.90
2002;DHT22;1003;48.002;7.788;2022-12-20T02:40:31;7.60;99.90
2002;DHT22;1003;48.002;7.788;2022-12-20T02:43:03;7.60;99.90
2002;DHT22;1003;48.002;7.788;2022-12-20T02:45:55;7.60;99.90
2002;DHT22;1003;48.002;7.788;2022-12-20T02:48:24;7.70;99.90
2002;DHT22;1003;48.002;7.788;2022-12-20T02:50:56;7.60;99.90
2002;DHT22;1003;48.002;7.788;2022-12-20T02:53:26;7.60;99.90
2002;DHT22;1003;48.002;7.788;2022-12-20T02:55:58;7.60;99.90
2002;DHT22;1003;48.002;7.788;2022-12-20T02:58:33;7.50;99.90
2002;DHT22;1003;48.002;7.788;2022-12-20T03:01:07;7.50;99.90
2002;DHT22;1003;48.002;7.788;2022-12-20T03:03:39;7.30;99.90
2002;DHT22;1003;48.002;7.788;2022-12-20T03:06:07;7.30;99.90
2002;DHT22;1003;48.002;7.788;2022-12-20T03:08:34;7.30;99.90
2002;DHT22;1003;48.002;7.788;2022-12-20T03:11:01;7.30;99.90
2002;DHT22;1003;48.002;7.788;2022-12-20T03:13:28;7.30;99.90
2002;DHT22;1003;48.002;7.788;2022-12-20T03:15:56;7.30;99.90
2002;DHT22;1003;48.002;7.788;2022-12-20T03:18:24;7.30;99.90
2002;DHT22;1003;48.002;7.788;2022-12-20T03:20:51;7.40;99.90
2002;DHT22;1003;48.002;7.788;2022-12-20T03:23:18;7.40;99.90
2002;DHT22;1003;48.002;7.788;2022-12-20T03:25:46;7.40;99.90
2002;DHT22;1003;48.002;7.788;2022-12-20T03:28:13;7.50;99.90
2002;DHT22;1003;48.002;7.788;2022-12-20T03:30:40;7.50;99.90
2002;DHT22;1003;48.002;7.788;2022-12-20T03:33:07;7.50;99.90
2002;DHT22;1003;48.002;7.788;2022-12-20T03:35:35;7.50;99.90
2002;DHT22;1003;48.002;7.788;2022-12-20T03:38:03;7.40;99.90
2002;DHT22;1003;48.002;7.788;2022-12-20T03:40:30;7.30;99.90
2002;DHT22;1003;48.002;7.788;2022-12-20T03:42:57;7.20;99.90
2002;DHT22;1003;48.002;7.788;2022-12-20T03:45:24;7.00;99.90
2002;DHT22;1003;48.002;7.788;2022-12-20T03:47:51;6.80;99.90
2002;DHT22;1003;48.002;7.788;2022-12-20T03:50:18;6.60;99.90
2002;DHT22;1003;48.002;7.788;2022-12-20T03:52:46;6.50;99.90
2002;DHT22;1003;48.002;7.788;2022-12-20T03:55:13;6.40;99.90
2002;DHT22;1003;48.002;7.788;2022-12-20T03:57:40;6.30;99.90
2002;DHT22;1003;48.002;7.788;2022-12-20T04:00:08;6.20;99.90
2002;DHT22;1003;48.002;7.788;2022-12-20T04:02:37;6.10;99.90
2002;DHT22;1003;48.002;7.788;2022-12-20T04:05:04;6.00;99.90
2002;DHT22;1003;48.002;7.788;2022-12-20T04:07:32;6.10;99.90
2002;DHT22;1003;48.002;7.788;2022-12-20T04:10:00;6.20;99.90
2002;DHT22;1003;48.002;7.788;2022-12-20T04:12:27;6.30;99.90
2002;DHT22;1003;48.002;7.788;2022-12-20T04:14:54;6.30;99.90
2002;DHT22;1003;48.002;7.788;2022-12-20T04:17:21;6.30;99.90
2002;DHT22;1003;48.002;7.788;2022-12-20T04:19:48;6.30;99.90
2002;DHT22;1003;48.002;7.788;2022-12-20T04:22:15;6.30;99.90
2002;DHT22;1003;48.002;7.788;2022-12-20T04:24:42;6.30;99.90
2002;DHT22;1003;48.002;7.788;2022-12-20T04:27:11;6.30;99.90
2002;DHT22;1003;48.002;7.788;2022-12-20T04:29:38;6.30;99.90
2002;DHT22;1003;48.002;7.788;2022-12-20T04:32:05;6.40;99.90
2002;DHT22;1003;48.002;7.788;2022-12-20T04:34:32;6.50;99.90
2002;DHT22;1003;48.002;7.788;2022-12-20T04:36:59;6.80;99.90
2002;DHT22;1003;48.002;7.788;2022-12-20T04:39:26;7.00;99.90
2002;DHT22;1003;48.002;7.788;2022-12-20T04:41:53;7.10;99.90
2002;DHT22;1003;48.002;7.788;2022-12-20T04:44:21;7.30;99.90
2002;DHT22;1003;48.002;7.788;2022-12-20T04:46:48;7.40;99.90
2002;DHT22;1003;48.002;7.788;2022-12-20T04:49:15;7.50;99.90
2002;DHT22;1003;48.002;7.788;2022-12-20T04:51:42;7.60;99.90
2002;DHT22;1003;48.002;7.788;2022-12-20T04:54:09;7.70;99.90
2002;DHT22;1003;48.002;7.788;2022-12-20T04:56:35;7.80;99.90
2002;DHT22;1003;48.002;7.788;2022-12-20T04:59:03;7.90;99.90
2002;DHT22;1003;48.002;7.788;2022-12-20T05:01:32;8.00;99.90
2002;DHT22;1003;48.002;7.788;2022-12-20T05:03:59;7.90;99.90
2002;DHT22;1003;48.002;7.788;2022-12-20T05:06:26;8.00;99.90
2002;DHT22;1003;48.002;7.788;2022-12-20T05:08:53;8.00;99.90
2002;DHT22;1003;48.002;7.788;2022-12-20T05:11:23;8.00;99.90
2002;DHT22;1003;48.002;7.788;2022-12-20T05:13:52;8.00;99.90
2002;DHT22;1003;48.002;7.788;2022-12-20T05:16:19;8.00;99.90
2002;DHT22;1003;48.002;7.788;2022-12-20T05:18:48;8.00;99.90
2002;DHT22;1003;48.002;7.788;2022-12-20T05:21:15;8.10;99.90
2002;DHT22;1003;48.002;7.788;2022-12-20T05:24:11;8.10;99.90
2002;DHT22;1003;48.002;7.788;2022-12-20T05:26:55;8.10;99.90
2002;DHT22;1003;48.002;7.788;2022-12-20T05:29:22;8.10;99.90
2002;DHT22;1003;48.002;7.788;2022-12-20T05:31:49;7.40;99.90
2002;DHT22;1003;48.002;7.788;2022-12-20T05:34:18;7.00;99.90
2002;DHT22;1003;48.002;7.788;2022-12-20T05:36:46;6.70;99.90
2002;DHT22;1003;48.002;7.788;2022-12-20T05:39:13;6.40;99.90
2002;DHT22;1003;48.002;7.788;2022-12-20T05:41:40;6.10;99.90
2002;DHT22;1003;48.002;7.788;2022-12-20T05:44:07;5.90;99.90
2002;DHT22;1003;48.002;7.788;2022-12-20T05:46:34;5.80;99.90
2002;DHT22;1003;48.002;7.788;2022-12-20T05:49:01;5.80;99.90
2002;DHT22;1003;48.002;7.788;2022-12-20T05:51:30;5.70;99.90
2002;DHT22;1003;48.002;7.788;2022-12-20T05:53:57;5.70;99.90
2002;DHT22;1003;48.002;7.788;2022-12-20T05:56:24;5.70;99.90
2002;DHT22;1003;48.002;7.788;2022-12-20T05:58:51;5.80;99.90
2002;DHT22;1003;48.002;7.788;2022-12-20T06:01:18;5.80;99.90
2002;DHT22;1003;48.002;7.788;2022-12-20T06:03:45;5.90;99.90
2002;DHT22;1003;48.002;7.788;2022-12-20T06:06:12;6.00;99.90
2002;DHT22;1003;48.002;7.788;2022-12-20T06:08:40;6.10;99.90
2002;DHT22;1003;48.002;7.788;2022-12-20T06:11:08;6.20;99.90
2002;DHT22;1003;48.002;7.788;2022-12-20T06:13:35;6.30;99.90
2002;DHT22;1003;48.002;7.788;2022-12-20T06:16:02;6.50;99.90
2002;DHT22;1003;48.002;7.788;2022-12-20T06:18:30;6.60;99.90
2002;DHT22;1003;48.002;7.788;2022-12-20T06:20:57;6.70;99.90
2002;DHT22;1003;48.002;7.788;2022-12-20T06:23:24;6.70;99.90
2002;DHT22;1003;48.002;7.788;2022-12-20T06:25:53;6.80;99.90
2002;DHT22;1003;48.002;7.788;2022-12-20T06:28:20;6.80;99.90
2002;DHT22;1003;48.002;7.788;2022-12-20T06:30:51;6.70;99.90
2002;DHT22;1003;48.002;7.788;2022-12-20T06:33:19;6.60;99.90
2002;DHT22;1003;48.002;7.788;2022-12-20T06:35:48;6.30;99.90
2002;DHT22;1003;48.002;7.788;2022-12-20T06:38:16;6.20;99.90
2002;DHT22;1003;48.002;7.788;2022-12-20T06:40:43;6.00;99.90
2002;DHT22;1003;48.002;7.788;2022-12-20T06:43:12;5.80;99.90
2002;DHT22;1003;48.002;7.788;2022-12-20T06:45:39;5.70;99.90
2002;DHT22;1003;48.002;7.788;2022-12-20T06:48:06;5.70;99.90
2002;DHT22;1003;48.002;7.788;2022-12-20T06:50:33;5.70;99.90
2002;DHT22;1003;48.002;7.788;2022-12-20T06:53:00;5.60;99.90
2002;DHT22;1003;48.002;7.788;2022-12-20T06:55:27;5.70;99.90
2002;DHT22;1003;48.002;7.788;2022-12-20T06:57:54;5.80;99.90
2002;DHT22;1003;48.002;7.788;2022-12-20T07:00:23;5.90;99.90
2002;DHT22;1003;48.002;7.788;2022-12-20T07:02:50;5.90;99.90
2002;DHT22;1003;48.002;7.788;2022-12-20T07:05:17;6.10;99.90
2002;DHT22;1003;48.002;7.788;2022-12-20T07:07:44;6.20;99.90
2002;DHT22;1003;48.002;7.788;2022-12-20T07:10:11;6.30;99.90
2002;DHT22;1003;48.002;7.788;2022-12-20T07:12:38;6.40;99.90
2002;DHT22;1003;48.002;7.788;2022-12-20T07:15:07;6.50;99.90
2002;DHT22;1003;48.002;7.788;2022-12-20T07:17:36;6.50;99.90
2002;DHT22;1003;48.002;7.788;2022-12-20T07:20:04;6.50;99.90
2002;DHT22;1003;48.002;7.788;2022-12-20T07:22:33;6.60;99.90
2002;DHT22;1003;48.002;7.788;2022-12-20T07:25:00;6.50;99.90
2002;DHT22;1003;48.002;7.788;2022-12-20T07:27:27;6.50;99.90
2002;DHT22;1003;48.002;7.788;2022-12-20T07:29:54;6.40;99.90
2002;DHT22;1003;48.002;7.788;2022-12-20T07:32:21;6.40;99.90
2002;DHT22;1003;48.002;7.788;2022-12-20T07:34:49;6.30;99.90
2002;DHT22;1003;48.002;7.788;2022-12-20T07:37:16;6.20;99.90
2002;DHT22;1003;48.002;7.788;2022-12-20T07:39:43;6.00;99.90
2002;DHT22;1003;48.002;7.788;2022-12-20T07:42:10;5.90;99.90
2002;DHT22;1003;48.002;7.788;2022-12-20T07:44:37;5.70;99.90
2002;DHT22;1003;48.002;7.788;2022-12-20T07:47:04;5.70;99.90
2002;DHT22;1003;48.002;7.788;2022-12-20T07:49:31;5.90;99.90
2002;DHT22;1003;48.002;7.788;2022-12-20T07:52:01;6.00;99.90
2002;DHT22;1003;48.002;7.788;2022-12-20T07:54:33;6.00;99.90
2002;DHT22;1003;48.002;7.788;2022-12-20T07:57:09;6.00;99.90
2002;DHT22;1003;48.002;7.788;2022-12-20T07:59:41;5.90;99.90
2002;DHT22;1003;48.002;7.788;2022-12-20T08:02:16;6.00;99.90
2002;DHT22;1003;48.002;7.788;2022-12-20T08:04:47;6.00;99.90
2002;DHT22;1003;48.002;7.788;2022-12-20T08:07:16;6.10;99.90
2002;DHT22;1003;48.002;7.788;2022-12-20T08:09:44;6.20;99.90
2002;DHT22;1003;48.002;7.788;2022-12-20T08:12:15;6.30;99.90
2002;DHT22;1003;48.002;7.788;2022-12-20T08:14:44;6.50;99.90
2002;DHT22;1003;48.002;7.788;2022-12-20T08:17:11;6.60;99.90
2002;DHT22;1003;48.002;7.788;2022-12-20T08:19:38;6.80;99.90
2002;DHT22;1003;48.002;7.788;2022-12-20T08:22:05;6.90;99.90
2002;DHT22;1003;48.002;7.788;2022-12-20T08:24:34;7.00;99.90
2002;DHT22;1003;48.002;7.788;2022-12-20T08:27:01;7.00;99.90
2002;DHT22;1003;48.002;7.788;2022-12-20T08:29:28;7.10;99.90
2002;DHT22;1003;48.002;7.788;2022-12-20T08:31:55;7.30;99.90
2002;DHT22;1003;48.002;7.788;2022-12-20T08:34:22;7.40;99.90
2002;DHT22;1003;48.002;7.788;2022-12-20T08:36:49;7.60;99.90
2002;DHT22;1003;48.002;7.788;2022-12-20T08:39:16;7.80;99.90
2002;DHT22;1003;48.002;7.788;2022-12-20T08:41:44;8.00;99.90
2002;DHT22;1003;48.002;7.788;2022-12-20T08:44:12;8.10;99.90
2002;DHT22;1003;48.002;7.788;2022-12-20T08:46:39;8.40;99.90
2002;DHT22;1003;48.002;7.788;2022-12-20T08:49:06;8.70;99.90
2002;DHT22;1003;48.002;7.788;2022-12-20T08:51:33;8.90;99.90
2002;DHT22;1003;48.002;7.788;2022-12-20T08:54:00;9.10;99.90
2002;DHT22;1003;48.002;7.788;2022-12-20T08:56:28;9.20;99.90
2002;DHT22;1003;48.002;7.788;2022-12-20T08:58:56;9.50;99.90
2002;DHT22;1003;48.002;7.788;2022-12-20T09:01:23;9.70;99.90
2002;DHT22;1003;48.002;7.788;2022-12-20T09:03:52;9.90;99.90
2002;DHT22;1003;48.002;7.788;2022-12-20T09:06:20;10.00;99.90
2002;DHT22;1003;48.002;7.788;2022-12-20T09:08:48;10.20;99.90
2002;DHT22;1003;48.002;7.788;2022-12-20T09:11:17;10.30;99.90
2002;DHT22;1003;48.002;7.788;2022-12-20T09:13:47;10.40;99.90
2002;DHT22;1003;48.002;7.788;2022-12-20T09:16:20;10.30;99.90
2002;DHT22;1003;48.002;7.788;2022-12-20T09:18:48;10.30;99.90
2002;DHT22;1003;48.002;7.788;2022-12-20T09:21:17;10.30;99.90
2002;DHT22;1003;48.002;7.788;2022-12-20T09:23:45;10.30;99.90
2002;DHT22;1003;48.002;7.788;2022-12-20T09:26:14;10.30;99.90
2002;DHT22;1003;48.002;7.788;2022-12-20T09:28:44;10.30;99.90
2002;DHT22;1003;48.002;7.788;2022-12-20T09:31:13;10.30;99.90
2002;DHT22;1003;48.002;7.788;2022-12-20T09:33:44;10.30;99.90
2002;DHT22;1003;48.002;7.788;2022-12-20T09:36:14;10.40;99.90
2002;DHT22;1003;48.002;7.788;2022-12-20T09:38:43;10.50;99.90
2002;DHT22;1003;48.002;7.788;2022-12-20T09:41:21;10.50;99.90
2002;DHT22;1003;48.002;7.788;2022-12-20T09:43:52;10.60;99.90
2002;DHT22;1003;48.002;7.788;2022-12-20T09:46:21;10.80;99.90
2002;DHT22;1003;48.002;7.788;2022-12-20T09:48:52;10.90;99.90
2002;DHT22;1003;48.002;7.788;2022-12-20T09:51:48;11.00;99.90
2002;DHT22;1003;48.002;7.788;2022-12-20T09:54:32;11.10;99.90
2002;DHT22;1003;48.002;7.788;2022-12-20T09:57:13;10.90;99.90
2002;DHT22;1003;48.002;7.788;2022-12-20T09:59:50;10.80;99.90
2002;DHT22;1003;48.002;7.788;2022-12-20T10:02:20;10.90;99.90
2002;DHT22;1003;48.002;7.788;2022-12-20T10:04:51;10.90;99.90
2002;DHT22;1003;48.002;7.788;2022-12-20T10:07:28;10.60;99.90
2002;DHT22;1003;48.002;7.788;2022-12-20T10:10:24;10.60;99.90
2002;DHT22;1003;48.002;7.788;2022-12-20T10:13:14;10.60;99.90
2002;DHT22;1003;48.002;7.788;2022-12-20T10:15:58;10.50;99.90
2002;DHT22;1003;48.002;7.788;2022-12-20T10:18:44;10.50;99.90
2002;DHT22;1003;48.002;7.788;2022-12-20T10:21:27;10.50;99.90
2002;DHT22;1003;48.002;7.788;2022-12-20T10:24:04;10.60;99.90
2002;DHT22;1003;48.002;7.788;2022-12-20T10:26:38;10.60;99.90
2002;DHT22;1003;48.002;7.788;2022-12-20T10:29:05;10.70;99.90
2002;DHT22;1003;48.002;7.788;2022-12-20T10:31:33;10.70;99.90
2002;DHT22;1003;48.002;7.788;2022-12-20T10:34:01;10.70;99.90
2002;DHT22;1003;48.002;7.788;2022-12-20T10:36:31;10.70;99.90
2002;DHT22;1003;48.002;7.788;2022-12-20T10:39:00;10.70;99.90
2002;DHT22;1003;48.002;7.788;2022-12-20T10:41:30;10.60;99.90
2002;DHT22;1003;48.002;7.788;2022-12-20T10:44:01;10.60;99.90
2002;DHT22;1003;48.002;7.788;2022-12-20T10:46:38;10.60;99.90
2002;DHT22;1003;48.002;7.788;2022-12-20T10:49:23;10.60;99.90
2002;DHT22;1003;48.002;7.788;2022-12-20T10:51:59;10.70;99.90
2002;DHT22;1003;48.002;7.788;2022-12-20T10:54:32;10.80;99.90
2002;DHT22;1003;48.002;7.788;2022-12-20T10:57:10;10.90;99.90
2002;DHT22;1003;48.002;7.788;2022-12-20T10:59:44;10.90;99.90
2002;DHT22;1003;48.002;7.788;2022-12-20T11:02:27;11.20;99.90
2002;DHT22;1003;48.002;7.788;2022-12-20T11:04:57;11.50;99.90
2002;DHT22;1003;48.002;7.788;2022-12-20T11:07:28;11.60;99.90
2002;DHT22;1003;48.002;7.788;2022-12-20T11:09:58;11.90;99.90
2002;DHT22;1003;48.002;7.788;2022-12-20T11:12:26;12.00;99.90
2002;DHT22;1003;48.002;7.788;2022-12-20T11:15:08;12.10;99.90
2002;DHT22;1003;48.002;7.788;2022-12-20T11:17:40;12.40;99.90
2002;DHT22;1003;48.002;7.788;2022-12-20T11:20:24;12.70;99.90
2002;DHT22;1003;48.002;7.788;2022-12-20T11:23:11;12.80;99.90
2002;DHT22;1003;48.002;7.788;2022-12-20T11:26:04;12.90;99.90
2002;DHT22;1003;48.002;7.788;2022-12-20T11:28:55;12.90;99.90
2002;DHT22;1003;48.002;7.788;2022-12-20T11:31:42;12.80;99.90
2002;DHT22;1003;48.002;7.788;2022-12-20T11:34:26;12.90;99.90
2002;DHT22;1003;48.002;7.788;2022-12-20T11:37:13;12.90;99.90
2002;DHT22;1003;48.002;7.788;2022-12-20T11:39:56;12.90;99.90
2002;DHT22;1003;48.002;7.788;2022-12-20T11:42:39;12.80;99.90
2002;DHT22;1003;48.002;7.788;2022-12-20T11:45:22;12.80;99.90
2002;DHT22;1003;48.002;7.788;2022-12-20T11:48:17;12.80;99.90
2002;DHT22;1003;48.002;7.788;2022-12-20T11:51:09;12.80;99.90
2002;DHT22;1003;48.002;7.788;2022-12-20T11:53:52;12.80;99.90
2002;DHT22;1003;48.002;7.788;2022-12-20T11:56:29;12.90;99.90
2002;DHT22;1003;48.002;7.788;2022-12-20T11:59:02;12.80;99.90
2002;DHT22;1003;48.002;7.788;2022-12-20T12:01:37;12.90;99.90
2002;DHT22;1003;48.002;7.788;2022-12-20T12:04:12;13.10;99.90
2002;DHT22;1003;48.002;7.788;2022-12-20T12:06:44;13.30;99.90
2002;DHT22;1003;48.002;7.788;2022-12-20T12:09:20;13.40;99.90
2002;DHT22;1003;48.002;7.788;2022-12-20T12:11:57;13.60;99.90
2002;DHT22;1003;48.002;7.788;2022-12-20T12:14:34;13.50;99.90
2002;DHT22;1003;48.002;7.788;2022-12-20T12:17:16;13.40;99.90
2002;DHT22;1003;48.002;7.788;2022-12-20T12:19:50;13.40;99.90
2002;DHT22;1003;48.002;7.788;2022-12-20T12:22:27;13.40;99.90
2002;DHT22;1003;48.002;7.788;2022-12-20T12:25:02;13.50;99.90
2002;DHT22;1003;48.002;7.788;2022-12-20T12:27:41;13.60;99.90
2002;DHT22;1003;48.002;7.788;2022-12-20T12:30:12;13.60;99.90
2002;DHT22;1003;48.002;7.788;2022-12-20T12:32:42;13.70;99.90
2002;DHT22;1003;48.002;7.788;2022-12-20T12:35:37;13.80;99.90
2002;DHT22;1003;48.002;7.788;2022-12-20T12:38:39;13.90;99.90
2002;DHT22;1003;48.002;7.788;2022-12-20T12:41:54;14.10;99.90
2002;DHT22;1003;48.002;7.788;2022-12-20T12:44:45;14.30;99.90
2002;DHT22;1003;48.002;7.788;2022-12-20T12:47:20;14.60;99.90
2002;DHT22;1003;48.002;7.788;2022-12-20T12:49:55;14.90;99.90
2002;DHT22;1003;48.002;7.788;2022-12-20T12:52:28;14.90;99.90
2002;DHT22;1003;48.002;7.788;2022-12-20T12:55:34;14.90;99.90
2002;DHT22;1003;48.002;7.788;2022-12-20T12:58:30;14.80;99.90
2002;DHT22;1003;48.002;7.788;2022-12-20T13:01:02;14.80;99.90
2002;DHT22;1003;48.002;7.788;2022-12-20T13:03:41;14.80;99.90
2002;DHT22;1003;48.002;7.788;2022-12-20T13:06:50;14.90;99.90
2002;DHT22;1003;48.002;7.788;2022-12-20T13:09:39;14.90;99.90
2002;DHT22;1003;48.002;7.788;2022-12-20T13:12:52;15.00;99.90
2002;DHT22;1003;48.002;7.788;2022-12-20T13:15:48;15.20;99.90
2002;DHT22;1003;48.002;7.788;2022-12-20T13:18:36;15.30;99.90
2002;DHT22;1003;48.002;7.788;2022-12-20T13:21:17;15.30;99.90
2002;DHT22;1003;48.002;7.788;2022-12-20T13:27:29;15.10;99.90
2002;DHT22;1003;48.002;7.788;2022-12-20T13:30:14;14.90;99.90
2002;DHT22;1003;48.002;7.788;2022-12-20T13:33:17;14.80;99.90
2002;DHT22;1003;48.002;7.788;2022-12-20T13:36:01;14.70;99.90
2002;DHT22;1003;48.002;7.788;2022-12-20T13:39:01;14.60;99.90
2002;DHT22;1003;48.002;7.788;2022-12-20T13:41:53;14.60;99.90
2002;DHT22;1003;48.002;7.788;2022-12-20T13:44:42;14.40;99.90
2002;DHT22;1003;48.002;7.788;2022-12-20T13:47:43;14.30;99.90
2002;DHT22;1003;48.002;7.788;2022-12-20T13:50:26;14.30;99.90
2002;DHT22;1003;48.002;7.788;2022-12-20T13:52:57;14.20;99.90
2002;DHT22;1003;48.002;7.788;2022-12-20T13:55:33;14.20;99.90
2002;DHT22;1003;48.002;7.788;2022-12-20T13:58:10;14.40;99.90
2002;DHT22;1003;48.002;7.788;2022-12-20T14:00:40;14.50;99.90
2002;DHT22;1003;48.002;7.788;2022-12-20T14:03:19;14.60;99.90
2002;DHT22;1003;48.002;7.788;2022-12-20T14:05:52;14.70;99.90
2002;DHT22;1003;48.002;7.788;2022-12-20T14:08:25;14.70;99.90
2002;DHT22;1003;48.002;7.788;2022-12-20T14:11:06;14.60;99.90
2002;DHT22;1003;48.002;7.788;2022-12-20T14:13:38;14.40;99.90
2002;DHT22;1003;48.002;7.788;2022-12-20T14:16:12;14.30;99.90
2002;DHT22;1003;48.002;7.788;2022-12-20T14:18:46;14.30;99.90
2002;DHT22;1003;48.002;7.788;2022-12-20T14:21:17;14.30;99.90
2002;DHT22;1003;48.002;7.788;2022-12-20T14:23:46;14.10;99.90
2002;DHT22;1003;48.002;7.788;2022-12-20T14:26:17;14.20;99.90
2002;DHT22;1003;48.002;7.788;2022-12-20T14:28:49;14.20;99.90
2002;DHT22;1003;48.002;7.788;2022-12-20T14:31:23;13.90;99.90
2002;DHT22;1003;48.002;7.788;2022-12-20T14:34:02;13.80;99.90
2002;DHT22;1003;48.002;7.788;2022-12-20T14:36:32;13.70;99.90
2002;DHT22;1003;48.002;7.788;2022-12-20T14:39:00;13.60;99.90
2002;DHT22;1003;48.002;7.788;2022-12-20T14:41:54;13.60;99.90
2002;DHT22;1003;48.002;7.788;2022-12-20T14:44:23;13.50;99.90
2002;DHT22;1003;48.002;7.788;2022-12-20T14:46:53;13.40;99.90
2002;DHT22;1003;48.002;7.788;2022-12-20T14:49:24;13.30;99.90
2002;DHT22;1003;48.002;7.788;2022-12-20T14:52:10;13.30;99.90
2002;DHT22;1003;48.002;7.788;2022-12-20T14:54:43;13.10;99.90
2002;DHT22;1003;48.002;7.788;2022-12-20T14:57:21;13.10;99.90
2002;DHT22;1003;48.002;7.788;2022-12-20T15:00:04;12.90;99.90
2002;DHT22;1003;48.002;7.788;2022-12-20T15:02:40;12.80;99.90
2002;DHT22;1003;48.002;7.788;2022-12-20T15:05:41;12.70;99.90
2002;DHT22;1003;48.002;7.788;2022-12-20T15:08:15;12.70;99.90
2002;DHT22;1003;48.002;7.788;2022-12-20T15:10:49;12.60;99.90
2002;DHT22;1003;48.002;7.788;2022-12-20T15:13:21;12.60;99.90
2002;DHT22;1003;48.002;7.788;2022-12-20T15:15:51;12.50;99.90
2002;DHT22;1003;48.002;7.788;2022-12-20T15:18:19;12.50;99.90
2002;DHT22;1003;48.002;7.788;2022-12-20T15:20:51;12.40;99.90
2002;DHT22;1003;48.002;7.788;2022-12-20T15:23:28;12.40;99.90
2002;DHT22;1003;48.002;7.788;2022-12-20T15:25:56;12.40;99.90
2002;DHT22;1003;48.002;7.788;2022-12-20T15:28:25;12.30;99.90
2002;DHT22;1003;48.002;7.788;2022-12-20T15:30:53;12.30;99.90
2002;DHT22;1003;48.002;7.788;2022-12-20T15:33:22;12.30;99.90
2002;DHT22;1003;48.002;7.788;2022-12-20T15:35:51;12.30;99.90
2002;DHT22;1003;48.002;7.788;2022-12-20T15:38:22;12.20;99.90
2002;DHT22;1003;48.002;7.788;2022-12-20T15:40:53;12.10;99.90
2002;DHT22;1003;48.002;7.788;2022-12-20T15:43:23;12.10;99.90
2002;DHT22;1003;48.002;7.788;2022-12-20T15:45:52;12.00;99.90
2002;DHT22;1003;48.002;7.788;2022-12-20T15:48:21;11.90;99.90
2002;DHT22;1003;48.002;7.788;2022-12-20T15:50:52;11.80;99.90
2002;DHT22;1003;48.002;7.788;2022-12-20T15:53:23;11.80;99.90
2002;DHT22;1003;48.002;7.788;2022-12-20T15:55:54;11.70;99.90
2002;DHT22;1003;48.002;7.788;2022-12-20T15:58:23;11.60;99.90
2002;DHT22;1003;48.002;7.788;2022-12-20T16:00:53;11.60;99.90
2002;DHT22;1003;48.002;7.788;2022-12-20T16:03:28;11.60;99.90
2002;DHT22;1003;48.002;7.788;2022-12-20T16:05:57;11.50;99.90
2002;DHT22;1003;48.002;7.788;2022-12-20T16:08:24;11.50;99.90
2002;DHT22;1003;48.002;7.788;2022-12-20T16:10:52;11.40;99.90
2002;DHT22;1003;48.002;7.788;2022-12-20T16:13:22;11.40;99.90
2002;DHT22;1003;48.002;7.788;2022-12-20T16:15:50;11.40;99.90
2002;DHT22;1003;48.002;7.788;2022-12-20T16:18:17;11.40;99.90
2002;DHT22;1003;48.002;7.788;2022-12-20T16:20:44;11.40;99.90
2002;DHT22;1003;48.002;7.788;2022-12-20T16:23:15;11.40;99.90
2002;DHT22;1003;48.002;7.788;2022-12-20T16:25:45;11.40;99.90
2002;DHT22;1003;48.002;7.788;2022-12-20T16:28:13;11.30;99.90
2002;DHT22;1003;48.002;7.788;2022-12-20T16:30:40;11.20;99.90
2002;DHT22;1003;48.002;7.788;2022-12-20T16:33:18;11.20;99.90
2002;DHT22;1003;48.002;7.788;2022-12-20T16:35:46;11.20;99.90
2002;DHT22;1003;48.002;7.788;2022-12-20T16:38:13;11.20;99.90
2002;DHT22;1003;48.002;7.788;2022-12-20T16:40:41;11.20;99.90
2002;DHT22;1003;48.002;7.788;2022-12-20T16:43:13;11.10;99.90
2002;DHT22;1003;48.002;7.788;2022-12-20T16:45:42;11.10;99.90
2002;DHT22;1003;48.002;7.788;2022-12-20T16:48:09;11.10;99.90
2002;DHT22;1003;48.002;7.788;2022-12-20T16:50:37;11.10;99.90
2002;DHT22;1003;48.002;7.788;2022-12-20T16:53:11;11.10;99.90